Time;durP1;ratioP1;P1;durP2;ratioP2;P2;SDS_P1;SDS_P2;PMS_P1;PMS_P2;Temp;Humidity;BMP_temperature;BMP_pressure;BME280_temperature;BME280_humidity;BME280_pressure;Samples;Min_cycle;Max_cycle;Signal;HPM_P1;HPM_P2
2023/06/02 00:02:29;;;;;;;4.20;2.90;;;;;;;12.44;100.00;100665.52;106148;1255;61841;-88
2023/06/02 00:04:59;;;;;;;5.70;3.30;;;;;;;12.40;100.00;100662.23;106141;1252;61892;-88
2023/06/02 00:07:27;;;;;;;8.60;2.90;;;;;;;12.37;100.00;100662.60;106169;1256;73147;-89
2023/06/02 00:09:55;;;;;;;5.90;2.80;;;;;;;12.35;100.00;100664.71;105780;1252;64111;-89
2023/06/02 00:12:23;;;;;;;5.40;2.60;;;;;;;12.32;100.00;100661.41;106220;1253;72769;-88
2023/06/02 00:14:51;;;;;;;6.90;3.00;;;;;;;12.30;100.00;100663.64;105925;1259;62017;-89
2023/06/02 00:17:19;;;;;;;6.30;2.90;;;;;;;12.29;100.00;100665.46;106065;1259;59704;-86
2023/06/02 00:19:47;;;;;;;5.00;3.20;;;;;;;12.27;100.00;100669.64;106350;1254;71751;-87
2023/06/02 00:22:15;;;;;;;6.30;3.00;;;;;;;12.23;100.00;100667.40;106256;1257;63822;-87
2023/06/02 00:24:42;;;;;;;4.50;2.90;;;;;;;12.19;100.00;100669.23;106534;1254;71034;-86
2023/06/02 00:27:09;;;;;;;5.10;2.40;;;;;;;12.16;100.00;100670.29;106565;1252;60701;-88
2023/06/02 00:29:36;;;;;;;6.70;2.40;;;;;;;12.13;100.00;100666.68;106711;1256;59641;-87
2023/06/02 00:32:04;;;;;;;10.70;3.00;;;;;;;12.11;100.00;100667.49;106403;1253;71836;-88
2023/06/02 00:34:30;;;;;;;5.50;3.00;;;;;;;12.09;100.00;100668.69;106291;1256;64382;-88
2023/06/02 00:36:57;;;;;;;5.10;3.20;;;;;;;12.07;100.00;100668.46;106716;1254;71584;-87
2023/06/02 00:39:24;;;;;;;4.20;2.70;;;;;;;12.06;100.00;100668.73;106532;1252;62007;-88
2023/06/02 00:41:51;;;;;;;5.20;3.40;;;;;;;12.04;100.00;100668.85;107399;1252;59606;-87
2023/06/02 00:44:17;;;;;;;4.80;3.50;;;;;;;12.02;100.00;100666.86;106888;1251;71612;-87
2023/06/02 00:46:44;;;;;;;6.00;3.90;;;;;;;12.02;100.00;100670.89;107644;1254;62532;-88
2023/06/02 00:49:11;;;;;;;8.50;3.80;;;;;;;12.02;100.00;100671.05;107459;1252;71442;-87
2023/06/02 00:51:39;;;;;;;8.30;3.20;;;;;;;12.02;100.00;100669.48;106704;1255;60798;-89
2023/06/02 00:54:08;;;;;;;5.20;3.20;;;;;;;12.02;100.00;100670.70;106254;1254;60443;-88
2023/06/02 00:56:35;;;;;;;9.60;3.20;;;;;;;12.01;100.00;100671.49;108197;1256;72798;-87
2023/06/02 00:59:02;;;;;;;7.60;3.10;;;;;;;11.98;100.00;100672.20;109789;1254;63882;-88
2023/06/02 01:01:32;;;;;;;5.00;3.20;;;;;;;11.95;100.00;100674.67;109773;1254;71279;-88
2023/06/02 01:03:59;;;;;;;4.30;3.00;;;;;;;11.93;100.00;100671.09;109701;1252;59759;-88
2023/06/02 01:06:34;;;;;;;10.30;3.20;;;;;;;11.94;100.00;100673.30;109747;1252;58855;-88
2023/06/02 01:09:05;;;;;;;9.10;3.80;;;;;;;11.94;100.00;100674.19;109476;1253;71928;-88
2023/06/02 01:11:33;;;;;;;8.90;4.00;;;;;;;11.94;100.00;100673.14;109677;1254;63166;-87
2023/06/02 01:14:02;;;;;;;9.10;4.50;;;;;;;11.95;100.00;100673.81;109610;1253;70195;-87
2023/06/02 01:16:30;;;;;;;8.80;4.60;;;;;;;11.94;100.00;100672.45;109645;1253;60559;-88
2023/06/02 01:18:59;;;;;;;9.50;4.20;;;;;;;11.92;100.00;100673.28;109774;1252;60213;-87
2023/06/02 01:21:28;;;;;;;5.90;3.90;;;;;;;11.92;100.00;100671.59;109725;1253;71569;-89
2023/06/02 01:23:59;;;;;;;9.10;4.10;;;;;;;11.92;100.00;100673.29;109704;1254;62763;-88
2023/06/02 01:26:29;;;;;;;9.50;4.90;;;;;;;11.93;100.00;100672.02;109728;1256;71250;-87
2023/06/02 01:28:57;;;;;;;10.20;4.40;;;;;;;11.92;100.00;100672.73;109674;1252;60759;-88
2023/06/02 01:31:30;;;;;;;12.20;5.30;;;;;;;11.93;100.00;100674.98;109725;1254;58816;-88
2023/06/02 01:34:10;;;;;;;8.50;4.60;;;;;;;11.92;100.00;100672.25;109619;1252;71796;-88
2023/06/02 01:36:38;;;;;;;6.20;4.40;;;;;;;11.92;100.00;100674.20;109571;1254;62631;-88
2023/06/02 01:39:05;;;;;;;7.50;4.20;;;;;;;11.91;100.00;100681.98;109542;1256;70380;-87
2023/06/02 01:41:33;;;;;;;9.70;5.30;;;;;;;11.88;100.00;100683.35;109455;1252;59393;-87
2023/06/02 01:44:00;;;;;;;6.60;3.90;;;;;;;11.85;100.00;100691.23;109473;1254;59011;-86
2023/06/02 01:46:27;;;;;;;15.20;4.80;;;;;;;11.80;100.00;100687.86;109689;1254;72223;-87
2023/06/02 01:48:55;;;;;;;10.20;5.90;;;;;;;11.78;100.00;100688.71;109307;1253;62245;-86
2023/06/02 01:51:22;;;;;;;12.80;5.00;;;;;;;11.76;100.00;100687.59;106592;1254;71687;-88
2023/06/02 01:53:49;;;;;;;11.50;5.90;;;;;;;11.75;100.00;100689.61;106319;1256;62209;-88
2023/06/02 01:56:16;;;;;;;12.70;7.00;;;;;;;11.74;100.00;100692.45;106048;1254;60393;-91
2023/06/02 01:58:43;;;;;;;13.40;7.10;;;;;;;11.73;100.00;100691.46;106213;1256;73088;-89
2023/06/02 02:01:11;;;;;;;11.30;6.30;;;;;;;11.74;100.00;100691.08;108477;1254;63650;-87
2023/06/02 02:03:39;;;;;;;15.10;8.80;;;;;;;11.74;100.00;100692.30;109754;1254;71130;-86
2023/06/02 02:06:06;;;;;;;12.30;6.50;;;;;;;11.74;100.00;100689.86;109691;1252;60580;-86
2023/06/02 02:08:34;;;;;;;17.30;6.30;;;;;;;11.74;100.00;100689.51;108581;1254;59445;-88
2023/06/02 02:11:01;;;;;;;16.20;6.10;;;;;;;11.74;100.00;100687.92;106512;1255;71849;-86
2023/06/02 02:13:28;;;;;;;9.40;5.60;;;;;;;11.74;100.00;100686.50;106195;1254;63687;-87
2023/06/02 02:15:55;;;;;;;8.00;5.40;;;;;;;11.76;100.00;100689.85;106029;1254;71402;-87
2023/06/02 02:18:24;;;;;;;11.40;6.30;;;;;;;11.80;100.00;100686.29;105949;1254;61812;-87
2023/06/02 02:20:51;;;;;;;12.70;5.80;;;;;;;11.83;100.00;100683.64;106188;1254;60391;-89
2023/06/02 02:23:18;;;;;;;11.00;5.30;;;;;;;11.86;100.00;100686.66;106108;1257;71136;-89
2023/06/02 02:25:45;;;;;;;11.30;6.90;;;;;;;11.86;100.00;100688.55;105981;1256;62796;-90
2023/06/02 02:28:12;;;;;;;13.40;6.20;;;;;;;11.85;100.00;100690.17;106120;1254;72783;-90
2023/06/02 02:30:39;;;;;;;11.30;6.80;;;;;;;11.85;100.00;100693.33;105995;1254;61742;-90
2023/06/02 02:33:07;;;;;;;15.60;6.50;;;;;;;11.84;100.00;100695.83;106045;1254;60357;-88
2023/06/02 02:35:34;;;;;;;13.00;6.20;;;;;;;11.83;100.00;100698.02;105969;1252;71996;-87
2023/06/02 02:38:02;;;;;;;12.10;7.00;;;;;;;11.82;100.00;100690.54;105981;1257;61813;-88
2023/06/02 02:40:29;;;;;;;13.30;6.70;;;;;;;11.81;100.00;100693.77;105783;1256;72750;-88
2023/06/02 02:42:55;;;;;;;13.90;7.40;;;;;;;11.81;100.00;100693.58;105947;1258;60430;-87
2023/06/02 02:45:23;;;;;;;14.40;8.10;;;;;;;11.84;100.00;100692.55;105997;1257;59656;-88
2023/06/02 02:47:49;;;;;;;13.10;7.20;;;;;;;11.87;100.00;100693.73;106075;1254;72981;-87
2023/06/02 02:50:16;;;;;;;19.50;7.70;;;;;;;11.91;100.00;100697.20;105960;1257;64049;-89
2023/06/02 02:52:44;;;;;;;13.90;7.10;;;;;;;11.94;100.00;100695.79;105870;1258;71484;-89
2023/06/02 02:55:12;;;;;;;17.00;7.50;;;;;;;11.98;100.00;100693.91;105972;1254;61681;-90
2023/06/02 02:57:39;;;;;;;25.00;8.70;;;;;;;12.05;100.00;100689.80;106019;1252;60121;-87
2023/06/02 03:00:10;;;;;;;20.70;7.60;;;;;;;12.13;100.00;100688.20;105984;1254;72078;-87
2023/06/02 03:02:37;;;;;;;16.70;7.40;;;;;;;12.24;100.00;100684.52;105946;1258;62466;-88
2023/06/02 03:05:06;;;;;;;22.70;7.40;;;;;;;12.35;100.00;100686.45;106035;1260;71250;-88
2023/06/02 03:07:39;;;;;;;12.90;7.10;;;;;;;12.47;100.00;100686.70;106023;1257;60712;-88
2023/06/02 03:10:07;;;;;;;14.00;7.50;;;;;;;12.59;100.00;100685.36;105936;1257;60204;-87
2023/06/02 03:12:34;;;;;;;19.60;8.80;;;;;;;12.73;100.00;100689.52;106045;1255;73106;-87
2023/06/02 03:15:02;;;;;;;17.80;9.50;;;;;;;12.89;100.00;100694.90;106051;1256;63719;-90
2023/06/02 03:17:29;;;;;;;16.60;10.40;;;;;;;13.06;100.00;100693.91;105840;1257;71908;-89
2023/06/02 03:19:56;;;;;;;20.30;9.10;;;;;;;13.22;100.00;100691.91;105770;1257;60869;-90
2023/06/02 03:22:23;;;;;;;24.20;8.60;;;;;;;13.38;100.00;100691.00;105886;1254;60322;-90
2023/06/02 03:24:50;;;;;;;20.10;11.30;;;;;;;13.54;100.00;100692.50;105991;1257;72301;-90
2023/06/02 03:27:18;;;;;;;18.60;10.70;;;;;;;13.69;100.00;100690.89;106050;1254;62785;-86
2023/06/02 03:29:49;;;;;;;17.80;9.00;;;;;;;13.82;100.00;100689.59;106015;1257;72565;-91
2023/06/02 03:32:19;;;;;;;13.10;8.70;;;;;;;13.93;100.00;100693.92;106313;1257;60393;-91
2023/06/02 03:34:48;;;;;;;15.60;9.10;;;;;;;14.00;100.00;100689.85;106178;1256;60377;-91
2023/06/02 03:37:16;;;;;;;22.40;9.50;;;;;;;14.08;100.00;100688.97;106864;1254;72989;-87
2023/06/02 03:39:44;;;;;;;18.00;9.90;;;;;;;14.15;100.00;100694.79;107714;1255;62674;-87
2023/06/02 03:42:11;;;;;;;30.60;11.00;;;;;;;14.20;100.00;100694.71;106362;1257;72583;-90
2023/06/02 03:44:39;;;;;;;25.00;10.40;;;;;;;14.27;100.00;100698.09;105965;1259;60683;-91
2023/06/02 03:47:06;;;;;;;21.30;10.20;;;;;;;14.35;100.00;100698.98;105997;1254;60463;-88
2023/06/02 03:49:36;;;;;;;21.70;9.80;;;;;;;14.41;100.00;100695.80;105954;1256;72962;-86
2023/06/02 03:52:04;;;;;;;16.80;10.40;;;;;;;14.48;100.00;100696.87;106300;1256;62629;-88
2023/06/02 03:54:32;;;;;;;22.10;9.80;;;;;;;14.55;100.00;100695.17;107684;1256;72633;-88
2023/06/02 03:56:59;;;;;;;20.90;9.70;;;;;;;14.63;100.00;100697.74;106391;1257;61890;-87
2023/06/02 03:59:27;;;;;;;25.50;10.70;;;;;;;14.72;100.00;100696.52;106186;1257;60334;-89
2023/06/02 04:01:54;;;;;;;19.90;9.10;;;;;;;14.83;100.00;100696.61;106109;1260;73575;-89
2023/06/02 04:04:22;;;;;;;16.10;8.70;;;;;;;14.94;100.00;100693.81;105984;1256;63886;-89
2023/06/02 04:06:50;;;;;;;20.40;9.30;;;;;;;15.05;100.00;100693.31;105978;1256;71461;-90
2023/06/02 04:09:17;;;;;;;24.60;10.20;;;;;;;15.17;100.00;100691.85;106008;1256;60601;-88
2023/06/02 04:11:45;;;;;;;19.50;9.90;;;;;;;15.27;100.00;100692.62;105959;1257;60409;-90
2023/06/02 04:14:13;;;;;;;23.40;9.50;;;;;;;15.39;100.00;100691.52;105976;1257;73448;-88
2023/06/02 04:16:43;;;;;;;19.90;10.90;;;;;;;15.54;100.00;100692.66;105974;1257;63721;-91
2023/06/02 04:19:10;;;;;;;25.20;10.40;;;;;;;15.71;100.00;100691.61;106025;1257;72685;-90
2023/06/02 04:21:38;;;;;;;22.20;10.30;;;;;;;15.93;100.00;100697.45;106197;1257;61697;-88
2023/06/02 04:24:05;;;;;;;21.40;10.20;;;;;;;16.15;100.00;100694.06;106706;1254;60405;-87
2023/06/02 04:26:32;;;;;;;21.90;10.20;;;;;;;16.40;100.00;100695.90;106392;1259;74249;-87
2023/06/02 04:28:59;;;;;;;25.40;12.30;;;;;;;16.66;100.00;100699.32;106141;1258;62321;-89
2023/06/02 04:31:43;;;;;;;18.10;11.20;;;;;;;16.95;100.00;100703.82;105925;1254;72677;-91
2023/06/02 04:34:13;;;;;;;18.00;10.40;;;;;;;17.26;100.00;100706.48;106092;1256;60434;-89
2023/06/02 04:36:41;;;;;;;28.40;11.40;;;;;;;17.49;100.00;100709.77;105905;1257;60566;-88
2023/06/02 04:39:09;;;;;;;35.50;11.20;;;;;;;17.70;100.00;100711.42;106017;1256;74322;-88
2023/06/02 04:41:37;;;;;;;30.80;10.70;;;;;;;17.92;100.00;100711.27;105937;1256;62203;-90
2023/06/02 04:44:05;;;;;;;18.10;9.30;;;;;;;18.14;100.00;100714.08;105924;1255;71424;-91
2023/06/02 04:46:33;;;;;;;16.10;9.50;;;;;;;18.37;100.00;100717.60;105994;1259;60450;-92
2023/06/02 04:49:07;;;;;;;24.50;9.10;;;;;;;18.62;100.00;100715.19;105973;1257;60472;-91
2023/06/02 04:51:34;;;;;;;21.10;9.60;;;;;;;18.90;100.00;100714.19;105920;1257;72895;-88
2023/06/02 04:54:01;;;;;;;20.00;8.80;;;;;;;19.23;100.00;100716.75;106110;1257;63727;-88
2023/06/02 04:56:30;;;;;;;24.90;9.40;;;;;;;19.62;99.50;100718.73;105883;1260;72456;-89
2023/06/02 04:58:58;;;;;;;23.10;10.10;;;;;;;20.07;98.50;100718.92;105946;1257;60556;-87
2023/06/02 05:01:24;;;;;;;25.00;10.20;;;;;;;20.55;97.05;100716.86;106088;1256;60440;-90
2023/06/02 05:03:53;;;;;;;26.80;9.60;;;;;;;21.05;95.44;100718.72;107806;1255;73849;-88
2023/06/02 05:06:20;;;;;;;18.60;9.10;;;;;;;21.58;93.72;100720.23;109620;1253;62775;-89
2023/06/02 05:08:47;;;;;;;18.60;7.90;;;;;;;22.14;91.99;100719.58;108515;1254;71029;-87
2023/06/02 05:11:14;;;;;;;16.40;7.80;;;;;;;22.70;90.21;100714.92;107991;1260;60401;-87
2023/06/02 05:13:47;;;;;;;10.60;6.20;;;;;;;23.29;88.17;100715.04;106236;1255;60464;-90
2023/06/02 05:16:14;;;;;;;15.00;6.50;;;;;;;23.84;85.63;100708.52;105992;1267;72723;-89
2023/06/02 05:18:41;;;;;;;10.10;5.90;;;;;;;24.36;83.42;100712.48;105869;1253;64051;-92
2023/06/02 05:21:08;;;;;;;5.90;4.70;;;;;;;24.83;72.92;100713.69;105748;1260;72709;-89
2023/06/02 05:23:36;;;;;;;7.60;3.40;;;;;;;25.30;59.98;100711.34;105868;1258;60546;-90
2023/06/02 05:26:03;;;;;;;7.60;4.60;;;;;;;25.79;52.72;100710.36;105770;1254;60447;-88
2023/06/02 05:28:30;;;;;;;8.10;4.70;;;;;;;26.29;48.22;100710.05;105737;1253;73763;-89
2023/06/02 05:30:58;;;;;;;4.90;3.30;;;;;;;26.73;45.36;100705.18;105889;1257;63714;-90
2023/06/02 05:33:25;;;;;;;7.90;2.90;;;;;;;27.11;42.80;100710.10;105905;1254;72573;-91
2023/06/02 05:35:52;;;;;;;6.80;2.90;;;;;;;27.40;40.38;100710.81;105827;1260;60591;-93
2023/06/02 05:38:22;;;;;;;10.30;4.00;;;;;;;27.65;39.09;100708.92;105840;1254;61547;-89
2023/06/02 05:40:49;;;;;;;4.10;2.40;;;;;;;27.89;37.76;100706.02;105770;1255;73686;-90
2023/06/02 05:43:16;;;;;;;3.00;2.20;;;;;;;28.15;37.68;100706.20;105756;1259;61857;-93
2023/06/02 05:45:43;;;;;;;3.80;2.40;;;;;;;28.34;39.51;100706.67;105843;1256;71322;-88
2023/06/02 05:48:10;;;;;;;4.10;2.20;;;;;;;28.56;39.63;100703.58;105797;1259;60520;-91
2023/06/02 05:50:41;;;;;;;6.60;3.10;;;;;;;28.81;39.94;100700.98;105943;1255;60562;-88
2023/06/02 05:53:08;;;;;;;8.70;7.70;;;;;;;29.12;38.94;100700.98;105965;1259;73951;-89
2023/06/02 05:55:36;;;;;;;8.00;3.80;;;;;;;29.40;35.48;100701.28;106374;1257;63863;-87
2023/06/02 05:58:05;;;;;;;4.10;3.00;;;;;;;29.76;34.02;100696.40;105755;1255;71569;-87
2023/06/02 06:00:33;;;;;;;4.30;2.50;;;;;;;30.11;35.11;100698.39;105870;1258;60585;-89
2023/06/02 06:03:00;;;;;;;4.90;2.70;;;;;;;30.40;33.81;100698.02;106040;1260;60594;-89
2023/06/02 06:05:28;;;;;;;6.70;2.70;;;;;;;30.72;31.83;100700.31;106117;1259;73862;-87
2023/06/02 06:07:55;;;;;;;6.30;2.60;;;;;;;31.05;31.99;100695.33;106067;1254;62485;-90
2023/06/02 06:10:23;;;;;;;6.00;2.00;;;;;;;31.34;32.31;100695.83;106415;1255;72385;-88
2023/06/02 06:12:51;;;;;;;8.40;2.40;;;;;;;31.56;31.58;100691.48;106739;1257;60415;-89
2023/06/02 06:15:18;;;;;;;3.30;1.70;;;;;;;31.81;30.63;100690.05;106276;1262;60549;-88
2023/06/02 06:17:51;;;;;;;5.40;2.00;;;;;;;32.09;29.70;100689.33;106368;1260;73856;-89
2023/06/02 06:20:19;;;;;;;3.80;1.80;;;;;;;32.38;28.47;100686.17;106651;1262;62865;-90
2023/06/02 06:22:46;;;;;;;2.90;1.70;;;;;;;32.67;28.53;100689.75;106544;1257;72847;-90
2023/06/02 06:25:15;;;;;;;4.60;2.20;;;;;;;32.87;29.53;100690.59;106220;1262;60455;-88
2023/06/02 06:27:44;;;;;;;7.50;6.90;;;;;;;33.01;27.62;100685.67;106516;1258;60566;-88
2023/06/02 06:30:12;;;;;;;6.70;4.60;;;;;;;33.21;26.67;100684.54;106518;1263;72832;-90
2023/06/02 06:32:39;;;;;;;5.90;4.80;;;;;;;33.45;25.87;100681.76;106996;1257;64230;-89
2023/06/02 06:35:08;;;;;;;5.40;2.60;;;;;;;33.64;24.78;100683.54;106838;1261;71472;-90
2023/06/02 06:37:35;;;;;;;3.10;2.00;;;;;;;33.78;24.67;100684.30;107218;1256;60645;-91
2023/06/02 06:40:03;;;;;;;6.10;2.20;;;;;;;34.01;24.82;100687.78;107516;1258;60545;-91
2023/06/02 06:42:31;;;;;;;2.70;1.90;;;;;;;34.17;25.23;100683.36;106340;1262;72684;-91
2023/06/02 06:45:08;;;;;;;5.80;1.80;;;;;;;34.31;25.22;100684.81;106300;1257;63912;-92
2023/06/02 06:47:37;;;;;;;3.70;1.90;;;;;;;34.48;24.65;100681.27;106505;1254;72484;-91
2023/06/02 06:50:05;;;;;;;2.70;2.20;;;;;;;34.65;24.89;100678.92;106242;1262;60616;-91
2023/06/02 06:52:32;;;;;;;4.80;2.00;;;;;;;34.75;24.68;100676.02;107317;1257;60324;-89
2023/06/02 06:54:59;;;;;;;2.80;2.00;;;;;;;34.85;24.64;100677.36;107888;1257;74169;-89
2023/06/02 06:57:28;;;;;;;2.20;1.90;;;;;;;34.96;23.49;100676.36;107273;1257;63792;-91
2023/06/02 06:59:55;;;;;;;7.70;2.20;;;;;;;35.08;22.98;100674.80;105989;1258;71522;-93
2023/06/02 07:02:23;;;;;;;4.50;1.90;;;;;;;35.17;22.54;100672.45;106334;1262;60655;-93
2023/06/02 07:04:50;;;;;;;2.40;1.40;;;;;;;35.23;22.60;100673.64;106420;1257;60493;-91
2023/06/02 07:07:18;;;;;;;2.40;1.60;;;;;;;35.32;22.42;100669.84;107114;1257;73705;-89
2023/06/02 07:09:45;;;;;;;2.70;2.20;;;;;;;35.46;22.30;100670.42;108246;1257;62541;-90
2023/06/02 07:12:12;;;;;;;4.30;2.10;;;;;;;35.51;21.86;100668.14;107478;1257;74927;-89
2023/06/02 07:14:40;;;;;;;7.60;1.90;;;;;;;35.45;22.27;100669.04;106538;1257;60501;-91
2023/06/02 07:17:07;;;;;;;3.20;1.80;;;;;;;35.47;22.14;100666.95;106136;1257;60469;-94
2023/06/02 07:19:34;;;;;;;3.90;1.90;;;;;;;35.57;21.98;100663.11;105988;1263;73808;-89
2023/06/02 07:22:01;;;;;;;1.90;1.40;;;;;;;35.66;21.33;100665.58;105967;1257;62560;-90
2023/06/02 07:24:28;;;;;;;6.10;1.80;;;;;;;35.63;21.16;100663.24;106019;1254;72502;-88
2023/06/02 07:26:57;;;;;;;4.80;1.80;;;;;;;35.65;21.76;100668.23;106083;1254;60517;-88
2023/06/02 07:29:25;;;;;;;3.80;1.60;;;;;;;35.76;21.80;100666.48;106028;1257;60467;-89
2023/06/02 07:31:52;;;;;;;2.60;2.10;;;;;;;35.89;21.91;100673.50;106187;1257;73891;-88
2023/06/02 07:34:19;;;;;;;3.60;1.40;;;;;;;35.99;20.64;100670.63;106004;1254;63182;-90
2023/06/02 07:36:47;;;;;;;7.10;1.50;;;;;;;36.14;20.33;100667.23;106065;1254;73175;-88
2023/06/02 07:39:14;;;;;;;5.20;1.50;;;;;;;36.25;20.27;100665.73;106233;1254;60533;-93
2023/06/02 07:41:42;;;;;;;7.30;4.00;;;;;;;36.34;18.85;100665.02;106201;1254;60351;-93
2023/06/02 07:44:09;;;;;;;3.50;1.90;;;;;;;36.43;17.82;100666.33;106434;1254;73836;-89
2023/06/02 07:46:36;;;;;;;2.50;1.50;;;;;;;36.41;17.43;100659.94;106012;1254;63696;-95
2023/06/02 07:49:03;;;;;;;2.90;0.80;;;;;;;36.39;18.09;100659.55;106094;1260;64031;-91
2023/06/02 07:51:30;;;;;;;4.90;2.10;;;;;;;36.45;18.28;100656.95;106253;1254;60313;-91
2023/06/02 07:53:57;;;;;;;9.00;1.60;;;;;;;36.48;18.67;100659.80;106256;1257;60345;-90
2023/06/02 07:56:24;;;;;;;4.10;1.80;;;;;;;36.52;19.13;100658.90;106131;1254;63977;-91
2023/06/02 07:58:51;;;;;;;3.50;1.30;;;;;;;36.58;18.88;100656.27;106166;1254;60351;-91
2023/06/02 08:01:22;;;;;;;3.70;1.70;;;;;;;36.64;19.20;100659.05;106194;1259;63896;-91
2023/06/02 08:03:48;;;;;;;3.90;1.60;;;;;;;36.69;20.09;100654.55;106250;1258;60549;-92
2023/06/02 08:06:15;;;;;;;3.30;1.20;;;;;;;36.71;20.05;100656.48;108065;1254;60463;-89
2023/06/02 08:08:45;;;;;;;1.80;1.20;;;;;;;36.67;19.31;100658.69;109568;1254;72726;-92
2023/06/02 08:11:14;;;;;;;4.60;1.30;;;;;;;36.69;18.64;100664.22;108073;1257;60354;-91
2023/06/02 08:13:41;;;;;;;3.20;1.30;;;;;;;36.66;18.19;100669.09;108027;1254;62629;-90
2023/06/02 08:16:09;;;;;;;7.90;2.00;;;;;;;36.69;17.92;100670.24;106454;1257;60538;-89
2023/06/02 08:18:39;;;;;;;3.40;1.30;;;;;;;36.78;18.11;100671.20;106251;1259;60435;-91
2023/06/02 08:21:06;;;;;;;3.70;1.60;;;;;;;36.85;18.16;100671.84;106139;1257;65154;-93
2023/06/02 08:23:34;;;;;;;4.60;1.50;;;;;;;36.93;18.34;100666.25;106058;1257;60432;-91
2023/06/02 08:26:01;;;;;;;2.90;1.30;;;;;;;36.92;18.49;100664.39;106389;1257;63940;-95
2023/06/02 08:28:33;;;;;;;4.00;1.80;;;;;;;36.85;18.10;100661.02;106286;1257;61993;-90
2023/06/02 08:31:00;;;;;;;4.50;1.50;;;;;;;36.78;18.12;100655.58;106353;1254;60431;-93
2023/06/02 08:33:30;;;;;;;4.00;1.70;;;;;;;36.83;18.73;100656.91;106198;1254;65103;-89
2023/06/02 08:35:57;;;;;;;2.10;1.70;;;;;;;36.93;18.40;100660.02;106245;1260;60438;-91
2023/06/02 08:38:25;;;;;;;9.50;1.70;;;;;;;36.89;18.70;100661.73;106316;1257;63952;-91
2023/06/02 08:40:55;;;;;;;5.50;1.60;;;;;;;36.74;18.41;100657.04;106154;1257;60466;-91
2023/06/02 08:43:22;;;;;;;2.30;1.40;;;;;;;36.53;18.94;100657.98;106002;1257;60867;-86
2023/06/02 08:45:49;;;;;;;1.40;1.30;;;;;;;36.39;18.69;100653.90;105922;1257;65139;-91
2023/06/02 08:48:17;;;;;;;1.80;1.20;;;;;;;36.28;19.15;100654.38;106013;1260;62596;-91
2023/06/02 08:50:48;;;;;;;3.10;1.60;;;;;;;36.30;18.94;100651.02;106109;1254;62713;-92
2023/06/02 08:53:18;;;;;;;4.70;1.60;;;;;;;36.43;18.42;100645.08;106104;1255;60577;-92
2023/06/02 08:55:47;;;;;;;3.00;1.40;;;;;;;36.52;18.19;100645.24;105990;1254;60405;-89
2023/06/02 08:58:14;;;;;;;1.60;1.10;;;;;;;36.63;18.07;100640.95;106032;1254;65216;-91
2023/06/02 09:00:42;;;;;;;2.00;1.20;;;;;;;36.69;19.16;100644.17;105872;1260;60441;-89
2023/06/02 09:03:12;;;;;;;2.30;1.70;;;;;;;36.73;18.75;100643.85;106058;1254;73554;-90
2023/06/02 09:05:55;;;;;;;2.60;1.30;;;;;;;36.79;18.29;100644.27;106013;1254;60459;-90
2023/06/02 09:08:22;;;;;;;3.70;1.90;;;;;;;36.77;17.21;100637.20;106049;1255;60534;-90
2023/06/02 09:10:49;;;;;;;1.60;1.50;;;;;;;36.73;17.10;100639.92;106133;1257;65121;-89
2023/06/02 09:13:30;;;;;;;2.80;1.30;;;;;;;36.63;16.69;100639.59;105944;1254;60461;-93
2023/06/02 09:16:03;;;;;;;1.90;1.40;;;;;;;36.49;17.78;100640.69;105978;1259;62741;-91
2023/06/02 09:18:30;;;;;;;1.90;1.20;;;;;;;36.53;17.88;100641.86;106232;1257;60463;-92
2023/06/02 09:20:58;;;;;;;3.50;1.30;;;;;;;36.60;18.15;100637.81;105996;1254;60460;-93
2023/06/02 09:23:42;;;;;;;1.50;0.90;;;;;;;36.63;17.90;100636.64;105864;1254;65101;-88
2023/06/02 09:26:52;;;;;;;2.30;1.10;;;;;;;36.66;17.77;100634.52;106117;1257;63748;-91
2023/06/02 09:29:19;;;;;;;4.00;1.20;;;;;;;36.66;17.16;100632.35;105641;1261;64453;-89
2023/06/02 09:31:52;;;;;;;3.70;1.30;;;;;;;36.60;17.83;100626.07;105589;1259;60445;-90
2023/06/02 09:34:25;;;;;;;1.70;1.50;;;;;;;36.55;17.74;100624.71;105801;1258;60432;-91
2023/06/02 09:36:53;;;;;;;1.80;1.10;;;;;;;36.55;17.36;100623.89;105664;1262;63898;-92
2023/06/02 09:39:35;;;;;;;2.70;1.60;;;;;;;36.60;17.54;100618.09;105587;1261;60548;-90
2023/06/02 09:42:03;;;;;;;2.40;1.40;;;;;;;36.59;17.89;100616.65;105755;1260;64187;-89
2023/06/02 09:44:32;;;;;;;6.40;1.90;;;;;;;36.60;17.90;100615.31;105794;1262;60620;-92
2023/06/02 09:47:03;;;;;;;4.60;1.60;;;;;;;36.54;18.67;100615.86;106885;1259;60489;-92
2023/06/02 09:49:40;;;;;;;1.70;1.20;;;;;;;36.34;18.56;100612.52;106395;1261;63758;-94
2023/06/02 09:52:14;;;;;;;3.50;1.20;;;;;;;36.22;18.58;100613.30;105558;1258;62515;-90
2023/06/02 09:54:44;;;;;;;2.00;1.60;;;;;;;36.26;18.85;100605.86;105930;1258;63013;-91
2023/06/02 09:57:12;;;;;;;1.50;1.30;;;;;;;36.31;19.11;100605.73;105797;1260;60547;-90
2023/06/02 09:59:39;;;;;;;4.10;1.90;;;;;;;36.34;18.90;100603.02;105728;1262;60364;-87
2023/06/02 10:02:10;;;;;;;1.50;1.30;;;;;;;36.45;18.88;100600.73;105759;1262;65172;-94
2023/06/02 10:04:37;;;;;;;2.40;1.50;;;;;;;36.58;18.68;100595.27;105731;1254;60539;-91
2023/06/02 10:07:13;;;;;;;3.30;1.70;;;;;;;36.65;18.95;100591.02;106090;1254;63976;-93
2023/06/02 10:10:26;;;;;;;2.40;1.70;;;;;;;36.63;19.20;100590.25;106027;1259;60361;-87
2023/06/02 10:13:30;;;;;;;3.00;2.20;;;;;;;36.54;18.51;100587.88;105696;1260;61504;-90
2023/06/02 10:16:27;;;;;;;2.00;1.40;;;;;;;36.53;19.43;100583.56;105837;1258;65199;-90
2023/06/02 10:19:19;;;;;;;4.20;2.10;;;;;;;36.54;20.35;100582.63;105373;1266;62927;-92
2023/06/02 10:21:49;;;;;;;3.50;2.20;;;;;;;36.55;20.11;100577.27;105313;1265;62891;-93
2023/06/02 10:24:46;;;;;;;3.10;1.90;;;;;;;36.55;19.82;100579.08;104999;1271;61197;-91
2023/06/02 10:27:32;;;;;;;3.10;1.50;;;;;;;36.49;19.69;100575.23;105190;1268;60640;-90
2023/06/02 10:30:02;;;;;;;6.40;2.20;;;;;;;36.41;20.23;100573.79;105523;1265;65724;-92
2023/06/02 10:32:33;;;;;;;1.70;1.50;;;;;;;36.38;19.98;100570.86;105783;1267;60469;-90
2023/06/02 10:35:00;;;;;;;2.10;1.60;;;;;;;36.38;19.49;100566.16;105739;1270;62555;-91
2023/06/02 10:37:28;;;;;;;3.30;1.80;;;;;;;36.37;19.56;100564.46;105653;1265;60499;-88
2023/06/02 10:39:56;;;;;;;6.20;2.30;;;;;;;36.35;19.54;100561.77;105836;1266;60508;-92
2023/06/02 10:42:27;;;;;;;5.10;1.80;;;;;;;36.30;19.81;100563.06;106003;1266;65688;-91
2023/06/02 10:45:26;;;;;;;5.90;1.80;;;;;;;36.37;20.84;100563.16;106001;1265;60589;-89
2023/06/02 10:47:53;;;;;;;2.90;1.60;;;;;;;36.43;21.06;100564.17;105973;1261;62789;-89
2023/06/02 10:50:24;;;;;;;2.10;1.60;;;;;;;36.49;20.72;100559.98;106435;1265;60563;-92
2023/06/02 10:53:06;;;;;;;6.60;4.40;;;;;;;36.59;20.63;100558.17;106581;1260;59383;-90
2023/06/02 10:55:34;;;;;;;3.20;1.90;;;;;;;36.65;19.97;100556.32;106218;1253;74162;-92
2023/06/02 10:58:07;;;;;;;3.90;2.30;;;;;;;36.62;20.42;100559.36;106722;1254;60380;-89
2023/06/02 11:00:40;;;;;;;2.50;1.70;;;;;;;36.52;20.71;100554.70;106748;1254;64113;-92
2023/06/02 11:03:11;;;;;;;2.00;1.80;;;;;;;36.25;21.01;100553.59;106466;1253;60472;-91
2023/06/02 11:05:38;;;;;;;4.40;1.60;;;;;;;36.16;21.65;100550.15;106755;1254;60491;-89
2023/06/02 11:08:36;;;;;;;1.90;1.30;;;;;;;36.03;21.87;100549.66;109340;1253;64133;-89
2023/06/02 11:11:04;;;;;;;3.80;1.80;;;;;;;35.87;22.19;100546.02;108701;1254;58403;-89
2023/06/02 11:13:30;;;;;;;4.40;1.80;;;;;;;35.69;21.76;100543.70;108264;1253;72747;-91
2023/06/02 11:16:01;;;;;;;3.50;1.80;;;;;;;35.66;21.32;100549.95;107946;1254;60457;-89
2023/06/02 11:18:31;;;;;;;2.30;1.50;;;;;;;35.63;22.01;100550.19;107266;1253;60418;-90
2023/06/02 11:21:03;;;;;;;2.10;1.40;;;;;;;35.58;22.30;100547.17;107035;1255;72320;-93